»·PEaware :: N6737T KPAE-1S2

N6737T :: KPAE-1S2

FLIGHT INFORMATION

Flight Status: Arrived
Operator: Privately registered:
United States
More flights under this callsign
Pilot: Tom O. (3715)
Aircraft: CESSNA 208 CARAVAN
(C208)
More flights by this aircraft type
Origin: KPAE Paine Field/Snohomish Co.
United States
Destination: 1S2 Darrington Mun
United States
More flights between these airports :: More routes between these airports
Route: GPS DCT
File this flight plan on PilotEdge
Remarks: 29.92 fixed
Altitude:
(Current/Filed)
9,500ft
Speed:
(Current/Filed)
150kts
Departed: 21-Nov-20 02:22 PM
Arrived: 21-Nov-20 02:39 PM
Distance/Time
Traveled:
34nm/0:17
Distance/Time
To Go:
Arrived

Flight Plot

Page will automatically refresh every two minutes.

Flight plan parsing failed; only flown route is shown


Map Options




Map Legend


Flown Route
Filed Route
Departure Airport
Arrival Airport
Navaid (VOR, NDB)
Fix

Horizontal Profiles

Position Reports

Time Latitude Longitude Heading Altitude Ground
Speed
21-Nov-20 14:03 47.910104 -122.277997 45 595ft 0kts
21-Nov-20 14:04 47.910104 -122.277997 45 595ft 0kts
21-Nov-20 14:05 47.910104 -122.277997 45 595ft 0kts
21-Nov-20 14:06 47.910104 -122.277997 45 595ft 0kts
21-Nov-20 14:07 47.910104 -122.277997 45 595ft 0kts
21-Nov-20 14:08 47.910104 -122.277997 45 595ft 0kts
21-Nov-20 14:09 47.910104 -122.277997 45 595ft 0kts
21-Nov-20 14:10 47.911003 -122.278144 277 592ft 0kts
21-Nov-20 14:11 47.911003 -122.278144 277 592ft 0kts
21-Nov-20 14:12 47.911003 -122.278144 277 592ft 0kts
21-Nov-20 14:13 47.911021 -122.278370 275 591ft 6kts
21-Nov-20 14:14 47.911305 -122.283438 42 579ft 0kts
21-Nov-20 14:15 47.906493 -122.283356 177 580ft 34kts
21-Nov-20 14:16 47.897600 -122.283136 178 588ft 30kts
21-Nov-20 14:17 47.896712 -122.284050 286 588ft 0kts
21-Nov-20 14:17 47.896712 -122.284050 286 588ft 0kts
21-Nov-20 14:19 47.896712 -122.284050 286 588ft 0kts
21-Nov-20 14:19 47.896712 -122.284050 286 588ft 0kts
21-Nov-20 14:20 47.897642 -122.285389 355 586ft 23kts
21-Nov-20 14:22 47.924691 -122.285842 358 1090ft 120kts
21-Nov-20 14:22 47.932372 -122.247357 77 1774ft 150kts
21-Nov-20 14:24 47.959692 -122.184722 50 2583ft 158kts
21-Nov-20 14:24 47.982834 -122.141544 50 3151ft 159kts
21-Nov-20 14:26 48.014918 -122.080173 50 3958ft 161kts
21-Nov-20 14:26 48.038038 -122.035955 50 4530ft 163kts
21-Nov-20 14:27 48.066078 -121.982220 50 5230ft 164kts
21-Nov-20 14:28 48.095185 -121.926309 51 5489ft 178kts
21-Nov-20 14:29 48.126307 -121.866404 50 5498ft 183kts
21-Nov-20 14:30 48.157675 -121.805889 51 5502ft 184kts
21-Nov-20 14:31 48.202390 -121.773929 16 5497ft 180kts
21-Nov-20 14:32 48.249899 -121.749431 17 5503ft 181kts
21-Nov-20 14:33 48.293966 -121.743755 303 4040ft 162kts
21-Nov-20 14:34 48.274331 -121.739766 107 2852ft 158kts
21-Nov-20 14:35 48.259903 -121.684136 111 1930ft 134kts
21-Nov-20 14:36 48.249657 -121.631351 112 1388ft 127kts
21-Nov-20 14:37 48.248705 -121.590179 15 1103ft 96kts
21-Nov-20 14:38 48.258898 -121.611413 290 558ft 34kts
21-Nov-20 14:39 48.258762 -121.612583 108 556ft 19kts
21-Nov-20 14:40 48.258038 -121.610934 106 554ft 0kts
21-Nov-20 14:41 48.258038 -121.610934 106 554ft 0kts
21-Nov-20 14:42 48.258038 -121.610934 106 554ft 0kts
21-Nov-20 14:43 48.258038 -121.610934 106 554ft 0kts
21-Nov-20 14:44 48.258038 -121.610934 106 554ft 0kts
21-Nov-20 14:45 48.258038 -121.610934 106 554ft 0kts
21-Nov-20 14:46 48.258038 -121.610934 106 554ft 0kts
21-Nov-20 14:47 48.258038 -121.610934 106 554ft 0kts
21-Nov-20 14:48 48.258038 -121.610934 106 554ft 0kts
21-Nov-20 14:49 48.258038 -121.610934 106 554ft 0kts
21-Nov-20 14:50 48.258038 -121.610934 106 554ft 0kts
21-Nov-20 14:51 48.258038 -121.610934 106 554ft 0kts
21-Nov-20 14:52 48.258038 -121.610934 106 554ft 0kts

Navigation Log

Ident Type
Flight plan parsing failed, navigation log unavailable